Decatur, Iowa
Current Conditions -  °F | °C
As of 5:53 PM on Sunday 23 Nov 2014 (Local Time) from KLWD Reporting Station
Overcast Overcast  
Wind Chill: 35°   Ceiling: 1300
Heat Index: 44°   Visibility: 10mi
Dew Point: 41°   Wind: 24mph
Humidity: 89%   Direction: 340°NNW
Pressure: 29.36"   Gusts: 32mph
Location:  40.74°N, 93.84°W
Report Text: KLWD 232353Z AUTO 34021G28KT 10SM BKN013 OVC023 07/05 A2936 RMK AO2 PK WND 34028/2345 SLP944 60000 T00670050 10122 20067 50007
Loading
Personal Weather Stations






























Interactive Weather Map New forecast layout! Learn more

10-Day Weather Forecast

Advertisements
Track Severe Weather on mobile